Time;durP1;ratioP1;P1;durP2;ratioP2;P2;SDS_P1;SDS_P2;PMS_P1;PMS_P2;Temp;Humidity;BMP_temperature;BMP_pressure;BME280_temperature;BME280_humidity;BME280_pressure;Samples;Min_cycle;Max_cycle;Signal;HPM_P1;HPM_P2
2020/12/12 00:02:16;;;;;;;22.10;18.06;;;5.10;99.90;;;10.06;90.02;99050.63;1698519;75;24902;-76
2020/12/12 00:04:33;;;;;;;22.18;17.86;;;5.20;99.90;;;10.09;90.52;99048.87;1700562;75;24422;-76
2020/12/12 00:06:49;;;;;;;23.61;18.73;;;5.10;99.90;;;10.08;90.42;99052.37;1700101;75;24543;-76
2020/12/12 00:09:05;;;;;;;24.27;18.70;;;5.10;99.90;;;10.13;90.53;99053.12;1704451;75;24891;-76
2020/12/12 00:11:22;;;;;;;23.78;19.03;;;5.20;99.90;;;10.25;90.49;99056.84;1685927;75;24445;-75
2020/12/12 00:13:38;;;;;;;24.62;19.12;;;5.20;99.90;;;10.08;89.85;99056.27;1691110;75;24479;-75
2020/12/12 00:15:55;;;;;;;23.60;18.22;;;5.10;99.90;;;10.09;89.88;99055.80;1701578;75;24947;-76
2020/12/12 00:18:11;;;;;;;24.09;20.23;;;5.20;99.90;;;10.34;90.07;99054.50;1693353;75;24567;-76
2020/12/12 00:20:27;;;;;;;22.94;18.40;;;5.20;99.90;;;10.11;90.72;99055.34;1699754;75;24898;-77
2020/12/12 00:22:44;;;;;;;24.77;20.48;;;5.20;99.90;;;10.19;90.47;99060.84;1698436;75;24525;-76
2020/12/12 00:25:00;;;;;;;26.85;20.46;;;5.20;99.90;;;10.24;90.21;99061.60;1695932;75;24466;-76
2020/12/12 00:27:17;;;;;;;27.06;20.52;;;5.20;99.90;;;10.32;90.22;99062.80;1691564;75;24518;-75
2020/12/12 00:29:35;;;;;;;27.71;20.32;;;5.20;99.90;;;10.28;89.96;99067.19;1692282;75;24902;-76
2020/12/12 00:31:56;;;;;;;27.91;19.75;;;5.20;99.90;;;10.30;90.20;99061.96;1696856;75;24542;-76
2020/12/12 00:34:14;;;;;;;25.96;19.95;;;5.20;99.90;;;10.18;90.16;99064.78;1691724;75;24524;-75
2020/12/12 00:36:30;;;;;;;26.15;21.05;;;5.20;99.90;;;10.20;89.94;99061.25;1693248;75;24477;-75
2020/12/12 00:38:46;;;;;;;27.10;20.22;;;5.20;99.90;;;10.32;90.58;99064.94;1703616;74;24456;-76
2020/12/12 00:41:05;;;;;;;28.06;21.58;;;5.20;99.90;;;10.20;89.76;99061.69;1714014;74;24456;-76
2020/12/12 00:43:22;;;;;;;28.25;21.77;;;5.20;99.90;;;10.17;90.00;99061.74;1717810;74;24480;-77
2020/12/12 00:45:38;;;;;;;28.90;21.10;;;5.20;99.90;;;10.17;90.90;99065.20;1720227;74;25012;-77
2020/12/12 00:47:56;;;;;;;28.32;21.57;;;5.20;99.90;;;10.28;90.26;99065.89;1721656;74;24885;-76
2020/12/12 00:50:12;;;;;;;28.19;21.68;;;5.20;99.90;;;10.26;90.02;99069.38;1712175;74;24973;-76
2020/12/12 00:52:29;;;;;;;31.56;22.49;;;5.20;99.90;;;10.18;90.05;99073.88;1721772;74;24436;-78
2020/12/12 00:54:48;;;;;;;32.02;23.12;;;5.20;99.90;;;10.10;90.18;99079.18;1717869;74;24410;-75
2020/12/12 00:57:05;;;;;;;30.43;23.29;;;5.20;99.90;;;10.14;90.37;99073.06;1719446;74;24516;-76
2020/12/12 00:59:22;;;;;;;31.91;23.51;;;5.20;99.90;;;10.22;90.36;99074.23;1713302;74;24437;-75
2020/12/12 01:01:38;;;;;;;31.60;23.40;;;5.20;99.90;;;10.19;90.11;99075.16;1707306;74;24907;-77
2020/12/12 01:03:54;;;;;;;32.70;24.47;;;5.20;99.90;;;10.23;90.84;99080.70;1723484;74;24528;-75
2020/12/12 01:06:14;;;;;;;33.60;25.46;;;5.20;99.90;;;10.43;90.81;99079.09;1718385;74;24527;-77
2020/12/12 01:08:32;;;;;;;32.39;23.85;;;5.20;99.90;;;10.32;90.25;99084.45;1711871;74;24528;-77
2020/12/12 01:10:48;;;;;;;33.98;25.56;;;5.20;99.90;;;10.20;90.41;99080.77;1713686;74;24496;-75
2020/12/12 01:13:05;;;;;;;35.90;25.82;;;5.20;99.90;;;10.33;90.49;99080.12;1718323;74;24497;-75
2020/12/12 01:15:22;;;;;;;38.24;26.03;;;5.20;99.90;;;10.36;90.51;99083.53;1716504;74;24538;-75
2020/12/12 01:17:38;;;;;;;37.55;26.38;;;5.20;99.90;;;10.21;90.00;99082.47;1719773;74;24449;-77
2020/12/12 01:19:54;;;;;;;36.11;25.65;;;5.20;99.90;;;10.28;90.21;99083.23;1712657;74;24478;-75
2020/12/12 01:22:10;;;;;;;38.21;26.12;;;5.20;99.90;;;10.16;90.36;99084.74;1721575;74;24909;-76
2020/12/12 01:24:35;;;;;;;38.86;26.63;;;5.20;99.90;;;10.27;90.71;99091.50;1723476;74;24858;-76
2020/12/12 01:26:53;;;;;;;37.74;27.50;;;5.20;99.90;;;10.34;90.37;99089.20;1714704;74;24426;-75
2020/12/12 01:29:08;;;;;;;37.80;27.26;;;5.20;99.90;;;10.27;90.73;99091.93;1712218;74;24458;-76
2020/12/12 01:31:25;;;;;;;39.05;27.10;;;5.20;99.90;;;10.29;90.41;99092.31;1716950;74;24893;-75
2020/12/12 01:33:43;;;;;;;37.38;26.96;;;5.20;99.90;;;10.28;90.42;99089.30;1719325;74;24531;-75
2020/12/12 01:36:00;;;;;;;38.63;27.08;;;5.20;99.90;;;10.35;90.40;99090.91;1713412;74;24441;-76
2020/12/12 01:38:17;;;;;;;37.62;26.83;;;5.20;99.90;;;10.34;90.39;99089.20;1714793;74;24572;-76
2020/12/12 01:40:33;;;;;;;37.47;25.52;;;5.20;99.90;;;10.32;90.41;99092.72;1700313;75;24579;-77
2020/12/12 01:42:50;;;;;;;37.24;26.58;;;5.20;99.90;;;10.28;90.04;99104.04;1696121;75;24500;-76
2020/12/12 01:45:08;;;;;;;35.30;26.24;;;5.20;99.90;;;10.40;90.35;99099.49;1705095;75;24426;-77
2020/12/12 01:47:28;;;;;;;36.31;25.89;;;5.20;99.90;;;10.37;90.30;99099.98;1687702;75;24504;-75
2020/12/12 01:49:44;;;;;;;35.53;26.10;;;5.20;99.90;;;10.35;90.20;99099.17;1699495;75;24439;-75
2020/12/12 01:52:01;;;;;;;34.21;24.38;;;5.20;99.90;;;10.33;90.18;99099.20;1692702;75;24912;-75
2020/12/12 01:54:18;;;;;;;36.43;25.45;;;5.20;99.90;;;10.38;90.36;99105.19;1695240;75;24452;-76
2020/12/12 01:56:35;;;;;;;34.90;25.14;;;5.30;99.90;;;10.46;90.14;99105.89;1694933;75;24440;-76
2020/12/12 01:58:53;;;;;;;33.53;24.90;;;5.30;99.90;;;10.50;90.38;99102.37;1694310;75;24503;-75
2020/12/12 02:01:13;;;;;;;34.92;25.08;;;5.30;99.90;;;10.42;89.74;99102.94;1694224;75;24477;-75
2020/12/12 02:03:31;;;;;;;33.01;24.66;;;5.30;99.90;;;10.31;90.08;99111.36;1702150;75;24509;-76
2020/12/12 02:05:50;;;;;;;35.71;25.35;;;5.30;99.90;;;10.46;90.22;99111.56;1698683;75;24930;-74
2020/12/12 02:08:11;;;;;;;33.80;25.30;;;5.30;99.90;;;10.56;90.33;99111.80;1702050;75;24437;-75
2020/12/12 02:10:27;;;;;;;34.24;24.97;;;5.30;99.90;;;10.45;89.97;99110.69;1702381;75;24434;-76
2020/12/12 02:12:43;;;;;;;35.20;25.30;;;5.30;99.90;;;10.46;90.38;99110.26;1687234;75;24438;-75
2020/12/12 02:15:01;;;;;;;34.50;24.59;;;5.30;99.90;;;10.36;89.87;99113.45;1696763;75;24883;-75
2020/12/12 02:17:17;;;;;;;32.82;23.70;;;5.30;99.90;;;10.38;89.94;99114.73;1700523;75;24438;-75
2020/12/12 02:19:33;;;;;;;32.49;24.52;;;5.30;99.90;;;10.46;89.92;99115.00;1697034;75;24521;-76
2020/12/12 02:21:54;;;;;;;37.05;25.48;;;5.30;99.90;;;10.42;90.23;99109.44;1691621;75;24508;-77
2020/12/12 02:24:10;;;;;;;33.68;23.99;;;5.30;99.90;;;10.54;90.28;99105.31;1695333;75;24441;-76
2020/12/12 02:26:26;;;;;;;34.70;24.99;;;5.30;99.90;;;10.49;90.02;99108.91;1698882;75;24532;-76
2020/12/12 02:28:47;;;;;;;36.08;23.70;;;5.30;99.90;;;10.35;89.98;99106.51;1702767;75;24879;-75
2020/12/12 02:31:02;;;;;;;34.56;24.99;;;5.30;99.90;;;10.45;90.31;99107.22;1687313;75;24532;-76
2020/12/12 02:33:19;;;;;;;33.51;24.80;;;5.30;99.90;;;10.38;90.38;99109.52;1702541;75;24435;-75
2020/12/12 02:35:35;;;;;;;33.57;24.10;;;5.30;99.90;;;10.43;90.78;99108.55;1700341;75;24477;-76
2020/12/12 02:37:51;;;;;;;35.24;25.40;;;5.40;99.90;;;10.41;90.50;99111.64;1704302;75;24435;-75
2020/12/12 02:40:07;;;;;;;32.58;23.50;;;5.40;99.90;;;10.53;90.65;99109.25;1707255;75;24446;-76
2020/12/12 02:42:24;;;;;;;33.89;24.30;;;5.40;99.90;;;10.50;90.40;99107.57;1690289;75;24879;-75
2020/12/12 02:44:41;;;;;;;33.48;24.22;;;5.40;99.90;;;10.55;91.18;99111.39;1698367;75;24994;-76
2020/12/12 02:46:57;;;;;;;36.67;24.61;;;5.40;99.90;;;10.57;90.81;99112.23;1681438;75;24444;-77
2020/12/12 02:49:14;;;;;;;33.05;23.80;;;5.40;99.90;;;10.55;90.63;99116.17;1695933;75;24544;-76
2020/12/12 02:51:29;;;;;;;32.99;24.48;;;5.40;99.90;;;10.70;90.60;99116.34;1699351;75;24461;-75
2020/12/12 02:53:46;;;;;;;33.87;24.22;;;5.40;99.90;;;10.63;90.45;99118.63;1697526;75;24559;-74
2020/12/12 02:56:02;;;;;;;36.10;24.19;;;5.40;99.90;;;10.73;90.64;99120.20;1696545;74;24477;-77
2020/12/12 02:58:18;;;;;;;35.87;25.71;;;5.40;99.90;;;10.65;90.59;99117.70;1698208;75;24589;-75
2020/12/12 03:00:35;;;;;;;34.83;24.80;;;5.40;99.90;;;10.65;90.32;99121.61;1704303;75;24516;-77
2020/12/12 03:02:54;;;;;;;36.06;25.36;;;5.40;99.90;;;10.63;90.10;99127.30;1697424;75;24425;-75
2020/12/12 03:05:12;;;;;;;35.60;25.23;;;5.50;99.90;;;10.62;90.28;99128.17;1694913;75;24463;-75
2020/12/12 03:07:28;;;;;;;39.12;25.44;;;5.50;99.90;;;10.71;90.56;99131.07;1691649;75;24923;-76
2020/12/12 03:09:43;;;;;;;36.79;26.04;;;5.50;99.90;;;10.73;90.45;99133.64;1689172;75;24434;-75
2020/12/12 03:12:01;;;;;;;38.51;26.35;;;5.50;99.90;;;10.71;90.43;99131.07;1698045;75;24911;-74
2020/12/12 03:14:17;;;;;;;38.72;26.11;;;5.50;99.90;;;10.67;90.08;99134.59;1695901;75;24593;-77
2020/12/12 03:16:33;;;;;;;36.91;26.30;;;5.50;99.90;;;10.64;90.43;99135.95;1686619;75;24946;-75
2020/12/12 03:18:49;;;;;;;37.50;25.06;;;5.50;99.90;;;10.53;90.72;99134.84;1700832;75;24548;-75
2020/12/12 03:21:06;;;;;;;35.48;25.70;;;5.50;99.90;;;10.82;90.76;99136.08;1690860;75;24886;-74
2020/12/12 03:23:22;;;;;;;37.91;26.32;;;5.50;99.90;;;10.82;91.25;99139.98;1702778;75;24429;-76
2020/12/12 03:25:39;;;;;;;39.10;25.57;;;5.50;99.90;;;10.70;90.04;99138.02;1693562;75;24447;-77
2020/12/12 03:27:55;;;;;;;38.66;27.22;;;5.50;99.90;;;10.86;90.66;99135.98;1704145;75;24449;-76
2020/12/12 03:30:12;;;;;;;38.09;26.50;;;5.50;99.90;;;10.73;90.49;99141.02;1692589;75;24570;-75
2020/12/12 03:32:30;;;;;;;38.28;25.58;;;5.50;99.90;;;10.78;90.82;99140.94;1693868;75;24512;-75
2020/12/12 03:34:46;;;;;;;37.60;26.28;;;5.50;99.90;;;10.80;90.77;99149.13;1703554;75;24890;-76
2020/12/12 03:37:03;;;;;;;39.81;26.36;;;5.50;99.90;;;10.82;90.14;99146.06;1702922;75;24544;-75
2020/12/12 03:39:21;;;;;;;37.62;26.05;;;5.60;99.90;;;10.90;91.21;99144.61;1695687;75;24505;-75
2020/12/12 03:41:38;;;;;;;38.01;26.46;;;5.60;99.90;;;10.75;90.14;99147.03;1712389;75;24452;-75
2020/12/12 03:43:53;;;;;;;38.25;25.90;;;5.60;99.90;;;10.87;90.50;99148.58;1700312;75;24509;-76
2020/12/12 03:46:10;;;;;;;39.24;26.01;;;5.60;99.90;;;10.67;90.11;99154.98;1701288;75;24910;-74
2020/12/12 03:48:26;;;;;;;38.94;26.31;;;5.60;99.90;;;10.83;90.54;99149.53;1696172;75;24976;-75
2020/12/12 03:50:42;;;;;;;36.29;25.36;;;5.60;99.90;;;10.78;90.69;99148.28;1707798;75;24498;-74
2020/12/12 03:53:00;;;;;;;40.32;26.90;;;5.60;99.90;;;10.92;90.51;99146.75;1703294;75;24513;-75
2020/12/12 03:55:15;;;;;;;37.75;25.69;;;5.60;99.90;;;10.86;90.71;99152.08;1701768;75;24440;-74
2020/12/12 03:57:31;;;;;;;37.11;24.80;;;5.70;99.90;;;10.96;91.59;99151.01;1702492;75;24652;-74
2020/12/12 03:59:47;;;;;;;36.38;25.16;;;5.60;99.90;;;10.96;90.82;99154.48;1703713;75;24464;-74
2020/12/12 04:02:03;;;;;;;37.63;25.65;;;5.70;99.90;;;10.97;91.30;99159.26;1699137;75;24510;-75
2020/12/12 04:04:20;;;;;;;38.25;25.26;;;5.70;99.90;;;10.94;91.16;99158.02;1695049;75;24437;-75
2020/12/12 04:06:39;;;;;;;33.75;25.25;;;5.70;99.90;;;11.15;91.19;99153.69;1711383;75;24473;-74
2020/12/12 04:08:55;;;;;;;35.45;24.49;;;5.70;99.90;;;11.00;90.35;99159.20;1703192;74;24461;-74
2020/12/12 04:11:11;;;;;;;35.45;25.25;;;5.70;99.90;;;11.01;91.05;99157.87;1715056;75;24886;-76
2020/12/12 04:13:29;;;;;;;34.86;24.73;;;5.70;99.90;;;10.96;90.20;99157.52;1706951;74;24485;-75
2020/12/12 04:15:46;;;;;;;37.31;24.53;;;5.80;99.90;;;11.12;91.43;99166.34;1708921;75;24511;-75
2020/12/12 04:18:02;;;;;;;36.45;25.19;;;5.70;99.90;;;11.11;91.67;99165.91;1705326;75;25013;-76
2020/12/12 04:20:20;;;;;;;34.30;24.04;;;5.80;99.90;;;11.17;90.85;99172.77;1701109;75;24450;-74
2020/12/12 04:22:36;;;;;;;35.44;24.84;;;5.80;99.90;;;11.09;90.86;99165.53;1692176;75;24562;-77
2020/12/12 04:24:55;;;;;;;35.29;24.24;;;5.80;99.90;;;11.08;90.83;99171.64;1675964;75;24941;-75
2020/12/12 04:27:11;;;;;;;34.32;24.08;;;5.80;99.90;;;11.14;90.22;99171.52;1709041;75;25020;-76
2020/12/12 04:29:31;;;;;;;37.92;25.59;;;5.80;99.90;;;11.12;90.71;99173.28;1707071;75;24454;-77
2020/12/12 04:31:50;;;;;;;37.16;25.30;;;5.80;99.90;;;11.08;90.57;99171.64;1708955;75;24524;-75
2020/12/12 04:34:05;;;;;;;35.20;24.47;;;5.80;99.90;;;11.10;90.39;99177.66;1709929;75;24535;-75
2020/12/12 04:36:21;;;;;;;33.71;23.32;;;5.80;99.90;;;11.14;90.78;99172.83;1707336;75;24496;-75
2020/12/12 04:38:38;;;;;;;35.81;25.03;;;5.80;99.90;;;11.20;90.78;99181.82;1704954;75;24434;-74
2020/12/12 04:40:58;;;;;;;33.54;24.59;;;5.90;99.90;;;11.12;90.20;99180.67;1706062;75;24484;-75
2020/12/12 04:43:18;;;;;;;33.73;24.20;;;5.80;99.90;;;11.05;90.05;99186.86;1703239;74;24440;-75
2020/12/12 04:45:38;;;;;;;35.76;24.54;;;5.80;99.90;;;11.19;90.99;99175.74;1706619;74;24909;-74
2020/12/12 04:47:55;;;;;;;34.65;23.74;;;5.80;99.90;;;11.18;90.81;99179.68;1711113;74;24870;-76
2020/12/12 04:50:11;;;;;;;31.24;22.93;;;5.90;99.90;;;11.24;90.73;99180.89;1711370;74;24523;-74
2020/12/12 04:52:30;;;;;;;34.56;23.30;;;5.90;99.90;;;11.27;90.77;99183.44;1710584;74;24573;-75
2020/12/12 04:54:49;;;;;;;33.84;23.22;;;5.90;99.90;;;11.28;90.57;99186.45;1702048;74;24524;-76
2020/12/12 04:57:10;;;;;;;33.49;23.10;;;5.90;99.90;;;11.21;90.51;99188.30;1702471;74;24536;-75
2020/12/12 04:59:31;;;;;;;32.80;22.67;;;5.90;99.90;;;11.22;90.48;99195.25;1708475;74;24519;-76
2020/12/12 05:01:51;;;;;;;37.90;24.03;;;5.90;99.90;;;11.18;90.34;99184.89;1705310;74;25036;-75
2020/12/12 05:04:09;;;;;;;33.31;23.54;;;5.90;99.90;;;11.27;90.80;99189.48;1710390;74;24905;-75
2020/12/12 05:06:31;;;;;;;34.12;23.65;;;5.90;99.90;;;11.41;90.79;99192.69;1701146;74;24457;-76
2020/12/12 05:08:47;;;;;;;32.28;22.23;;;5.90;99.90;;;11.30;90.28;99197.24;1706041;74;24508;-76
2020/12/12 05:11:05;;;;;;;32.19;23.14;;;5.90;99.90;;;11.31;90.42;99202.02;1701756;74;25019;-75
2020/12/12 05:13:25;;;;;;;28.11;21.64;;;5.90;99.90;;;11.50;90.82;99198.17;1702347;74;24489;-74
2020/12/12 05:15:41;;;;;;;29.75;22.48;;;6.00;99.90;;;11.49;90.39;99202.52;1697316;74;24465;-74
2020/12/12 05:17:59;;;;;;;31.82;22.35;;;6.00;99.90;;;11.49;90.82;99206.44;1710223;74;24433;-76
2020/12/12 05:20:16;;;;;;;34.32;22.83;;;6.00;99.90;;;11.53;91.26;99208.11;1694418;74;24533;-75
2020/12/12 05:22:36;;;;;;;36.20;23.39;;;6.00;99.90;;;11.50;89.88;99204.70;1703052;74;24464;-76
2020/12/12 05:24:54;;;;;;;34.35;22.81;;;6.00;99.90;;;11.52;90.17;99205.06;1705854;74;24985;-75
2020/12/12 05:27:11;;;;;;;34.08;22.95;;;6.00;99.90;;;11.55;90.12;99206.77;1701363;74;24449;-75
2020/12/12 05:29:27;;;;;;;31.21;22.71;;;6.00;99.90;;;11.62;90.15;99211.83;1697057;74;24515;-74
2020/12/12 05:31:44;;;;;;;33.15;22.86;;;6.10;99.90;;;11.71;90.68;99211.67;1711093;74;24488;-76
2020/12/12 05:34:12;;;;;;;36.63;22.73;;;6.10;99.90;;;11.77;89.72;99215.48;1710570;74;24433;-75
2020/12/12 05:36:28;;;;;;;33.51;22.40;;;6.10;99.90;;;11.68;89.10;99215.64;1703036;74;24981;-76
2020/12/12 05:38:47;;;;;;;34.09;21.81;;;6.10;99.90;;;11.72;89.29;99215.14;1707297;75;24504;-76
2020/12/12 05:41:05;;;;;;;33.12;21.89;;;6.10;99.90;;;11.68;89.55;99218.72;1694057;74;25081;-78
2020/12/12 05:43:25;;;;;;;37.20;23.17;;;6.10;99.90;;;11.78;89.78;99222.41;1705639;74;24524;-76
2020/12/12 05:45:47;;;;;;;35.34;23.05;;;6.10;99.90;;;11.88;89.48;99223.08;1714218;74;24460;-75
2020/12/12 05:48:07;;;;;;;34.00;22.99;;;6.10;99.90;;;11.79;89.40;99216.28;1714830;74;24446;-76
2020/12/12 05:50:23;;;;;;;37.57;23.63;;;6.10;99.90;;;11.71;89.30;99222.56;1715116;74;24542;-76
2020/12/12 05:52:42;;;;;;;35.68;22.72;;;6.20;99.90;;;11.66;89.25;99223.09;1714815;74;24437;-76
2020/12/12 05:55:01;;;;;;;34.52;22.14;;;6.20;99.90;;;11.69;89.99;99229.12;1721685;74;24505;-75
2020/12/12 05:57:21;;;;;;;35.11;22.62;;;6.20;99.90;;;11.72;89.94;99236.00;1714031;74;24892;-76
2020/12/12 05:59:39;;;;;;;39.96;23.51;;;6.20;99.90;;;11.84;90.49;99230.09;1714179;74;24427;-76
2020/12/12 06:02:01;;;;;;;37.96;22.57;;;6.20;99.90;;;11.75;89.88;99238.11;1700146;74;24874;-75
2020/12/12 06:04:22;;;;;;;35.71;22.92;;;6.20;99.90;;;11.82;90.05;99238.39;1714027;74;24515;-75
2020/12/12 06:06:45;;;;;;;38.86;23.10;;;6.20;99.90;;;11.65;89.17;99239.64;1715399;74;24491;-77
2020/12/12 06:09:08;;;;;;;41.96;23.89;;;6.20;99.90;;;11.66;89.82;99243.52;1711751;74;24476;-75
2020/12/12 06:11:24;;;;;;;39.93;23.26;;;6.30;99.90;;;11.68;90.41;99250.84;1711803;74;24553;-77
2020/12/12 06:13:42;;;;;;;40.77;23.89;;;6.20;99.90;;;11.75;90.01;99254.20;1707863;74;24965;-76
2020/12/12 06:16:02;;;;;;;35.71;22.35;;;6.30;99.90;;;11.77;89.87;99264.16;1711760;74;24453;-76
2020/12/12 06:18:39;;;;;;;44.45;23.81;;;6.30;99.90;;;11.90;90.59;99260.43;1713826;74;24497;-76
2020/12/12 06:20:57;;;;;;;35.28;22.33;;;6.30;99.90;;;12.04;90.51;99257.92;1723802;74;24503;-75
2020/12/12 06:23:15;;;;;;;35.84;22.41;;;6.30;99.90;;;12.01;89.89;99263.21;1714014;74;24577;-75
2020/12/12 06:25:32;;;;;;;34.07;22.80;;;6.30;99.90;;;12.03;90.16;99269.70;1715704;74;24547;-75
2020/12/12 06:27:53;;;;;;;34.90;21.46;;;6.30;99.90;;;11.96;90.04;99264.21;1708848;74;24918;-76
2020/12/12 06:30:14;;;;;;;39.89;21.75;;;6.30;99.90;;;11.85;89.73;99267.05;1711328;74;24435;-76
2020/12/12 06:32:30;;;;;;;33.98;21.28;;;6.30;99.90;;;12.01;90.13;99274.11;1702525;74;24452;-74
2020/12/12 06:34:50;;;;;;;35.00;21.15;;;6.30;99.90;;;11.84;89.45;99275.73;1719115;74;24470;-75
2020/12/12 06:37:08;;;;;;;38.85;21.37;;;6.30;99.90;;;11.69;89.38;99285.17;1719940;74;24472;-75
2020/12/12 06:39:26;;;;;;;36.17;22.16;;;6.40;99.90;;;11.72;90.10;99287.72;1709733;74;24450;-75
2020/12/12 06:41:43;;;;;;;42.77;23.24;;;6.40;99.90;;;11.90;90.18;99281.30;1719195;74;24447;-77
2020/12/12 06:43:59;;;;;;;40.82;23.22;;;6.40;99.90;;;11.77;89.97;99287.63;1698896;75;24528;-76
2020/12/12 06:46:18;;;;;;;41.64;22.71;;;6.40;99.90;;;11.95;90.67;99289.86;1694904;75;25119;-76
2020/12/12 06:48:36;;;;;;;46.99;25.29;;;6.40;99.90;;;11.78;90.23;99290.20;1714674;75;24569;-77
2020/12/12 06:50:54;;;;;;;44.66;23.94;;;6.50;99.90;;;11.94;90.29;99289.02;1708929;75;24914;-75
2020/12/12 06:53:24;;;;;;;49.53;24.20;;;6.50;99.90;;;11.92;90.13;99293.41;1701644;75;24509;-77
2020/12/12 06:55:40;;;;;;;49.90;24.53;;;6.50;99.90;;;11.88;90.48;99296.11;1704314;75;24923;-77
2020/12/12 06:57:56;;;;;;;46.80;23.84;;;6.50;99.90;;;11.94;90.62;99300.77;1713351;75;24613;-77
2020/12/12 07:00:23;;;;;;;49.05;25.41;;;6.50;99.90;;;12.10;90.61;99296.09;1693074;74;24477;-76
2020/12/12 07:02:55;;;;;;;47.85;24.52;;;6.50;99.90;;;12.02;90.95;99304.08;1701767;74;24649;-75
2020/12/12 07:05:22;;;;;;;45.20;24.38;;;6.60;99.90;;;12.09;89.92;99308.73;1697069;74;24493;-77
2020/12/12 07:07:39;;;;;;;46.73;24.73;;;6.50;99.90;;;12.12;90.16;99306.90;1693060;74;24895;-77
2020/12/12 07:09:56;;;;;;;49.07;25.31;;;6.60;99.90;;;12.13;90.24;99311.69;1703904;74;24978;-76
2020/12/12 07:12:12;;;;;;;54.18;26.18;;;6.60;99.90;;;12.14;89.93;99310.78;1717418;74;24562;-76
2020/12/12 07:14:29;;;;;;;56.51;25.47;;;6.60;99.90;;;12.19;90.82;99316.34;1715994;74;24449;-76
2020/12/12 07:16:45;;;;;;;53.72;25.87;;;6.60;99.90;;;12.14;89.88;99318.61;1708663;74;24445;-76
2020/12/12 07:19:02;;;;;;;59.47;26.20;;;6.70;99.90;;;12.22;90.30;99315.87;1704073;74;24430;-77
2020/12/12 07:23:55;;;;;;;53.24;25.25;;;6.70;99.90;;;12.28;89.68;99323.13;1746470;72;25206;-75
2020/12/12 07:26:13;;;;;;;55.94;25.15;;;6.70;99.90;;;12.00;90.23;99332.38;1719290;73;24457;-76
2020/12/12 07:28:29;;;;;;;57.34;25.59;;;6.70;99.90;;;11.99;90.86;99333.27;1716474;74;24480;-76
2020/12/12 07:30:45;;;;;;;56.91;25.95;;;6.70;99.90;;;12.16;91.56;99332.06;1718867;73;24452;-77
2020/12/12 07:33:03;;;;;;;51.92;24.29;;;6.70;99.90;;;12.20;91.04;99332.86;1723767;73;24479;-76
2020/12/12 07:35:24;;;;;;;59.56;24.19;;;6.70;99.90;;;12.01;90.46;99340.64;1717514;74;24559;-75
2020/12/12 07:37:40;;;;;;;53.26;25.05;;;6.70;99.90;;;12.02;91.34;99344.95;1719005;73;24440;-76
2020/12/12 07:40:01;;;;;;;48.69;23.87;;;6.70;99.90;;;12.04;91.40;99341.41;1717660;73;24937;-77
2020/12/12 07:42:17;;;;;;;53.75;25.15;;;6.70;99.90;;;12.05;91.66;99344.89;1719965;73;24977;-77
2020/12/12 07:45:07;;;;;;;52.73;25.28;;;6.70;99.90;;;12.34;91.47;99346.48;1726426;73;24951;-77
2020/12/12 07:47:23;;;;;;;49.62;25.12;;;6.70;99.90;;;12.34;90.58;99355.63;1718243;73;24468;-76
2020/12/12 07:49:43;;;;;;;60.91;27.00;;;6.80;99.90;;;12.37;90.72;99359.47;1716514;73;24457;-76
2020/12/12 07:52:12;;;;;;;57.29;26.35;;;6.80;99.90;;;12.40;90.56;99367.23;1722001;73;24904;-78
2020/12/12 07:54:41;;;;;;;46.04;23.58;;;6.80;99.90;;;12.24;90.46;99376.27;1724617;73;24585;-76
2020/12/12 07:56:59;;;;;;;52.73;25.41;;;6.80;99.90;;;12.15;90.83;99384.28;1722271;73;24430;-78
2020/12/12 07:59:20;;;;;;;56.08;24.91;;;6.80;99.90;;;12.31;90.61;99384.84;1720862;73;24460;-77
2020/12/12 08:01:38;;;;;;;60.39;25.89;;;6.80;99.90;;;12.36;90.61;99392.14;1720948;73;24431;-77
2020/12/12 08:03:55;;;;;;;59.46;26.65;;;6.80;99.90;;;12.07;90.70;99396.61;1717068;73;24457;-76
2020/12/12 08:06:13;;;;;;;58.99;25.88;;;6.80;99.90;;;12.28;91.17;99397.95;1719227;73;24472;-80
2020/12/12 08:11:12;;;;;;;56.47;24.81;;;6.80;99.90;;;12.22;90.87;99398.07;1746713;72;25450;-77
2020/12/12 08:13:34;;;;;;;49.14;25.31;;;6.80;99.90;;;12.20;91.32;99406.77;1724736;73;24467;-77
2020/12/12 08:16:01;;;;;;;54.79;24.32;;;6.80;99.90;;;12.20;91.12;99401.55;1716099;73;24480;-82
2020/12/12 08:18:20;;;;;;;60.18;24.97;;;6.80;99.90;;;12.05;90.94;99411.42;1719020;73;24973;-75
2020/12/12 08:20:37;;;;;;;54.59;24.99;;;6.80;99.90;;;12.31;91.43;99413.11;1717819;73;24441;-76
2020/12/12 08:22:56;;;;;;;54.99;25.55;;;6.80;99.90;;;12.34;91.15;99417.40;1716647;73;24947;-75
2020/12/12 08:25:13;;;;;;;58.11;25.84;;;6.80;99.90;;;12.49;91.66;99419.26;1719235;73;24461;-76
2020/12/12 08:27:42;;;;;;;55.04;25.67;;;6.90;99.90;;;12.57;90.76;99423.88;1720597;73;24449;-75
2020/12/12 08:30:05;;;;;;;58.95;26.19;;;6.90;99.90;;;12.27;90.70;99428.83;1719791;73;24441;-76
2020/12/12 08:32:34;;;;;;;56.70;25.80;;;6.90;99.90;;;12.38;90.79;99424.30;1721874;73;24421;-75
2020/12/12 08:34:51;;;;;;;50.89;24.62;;;6.90;99.90;;;12.48;91.16;99429.30;1718451;73;24851;-76
2020/12/12 08:37:19;;;;;;;58.39;26.90;;;6.90;99.90;;;12.40;90.49;99441.64;1719348;73;24523;-75
2020/12/12 08:39:39;;;;;;;51.01;25.95;;;7.00;99.90;;;12.50;91.31;99436.66;1717661;73;24514;-76
2020/12/12 08:41:58;;;;;;;50.92;25.30;;;7.00;99.90;;;12.47;90.70;99439.77;1716821;73;24485;-75
2020/12/12 08:46:36;;;;;;;52.65;26.46;;;7.10;99.90;;;12.77;90.81;99450.91;1663459;74;24914;-80
2020/12/12 08:49:14;;;;;;;58.23;26.10;;;7.10;99.90;;;12.69;90.53;99451.08;1694450;74;24887;-83
2020/12/12 08:51:34;;;;;;;60.12;25.88;;;7.10;99.90;;;12.77;90.04;99454.36;1688515;74;24910;-80
2020/12/12 08:53:54;;;;;;;56.68;26.50;;;7.10;99.90;;;12.70;90.17;99462.36;1693921;74;24454;-82
2020/12/12 08:56:16;;;;;;;63.62;28.29;;;7.10;99.90;;;12.76;90.48;99463.10;1693168;76;24605;-80
2020/12/12 08:58:43;;;;;;;56.93;26.22;;;7.20;99.90;;;13.09;90.31;99457.64;1698002;74;24916;-80
2020/12/12 09:01:34;;;;;;;60.25;27.17;;;7.20;99.90;;;12.73;89.77;99460.55;1699739;74;24850;-82
2020/12/12 09:03:59;;;;;;;60.50;26.62;;;7.20;99.90;;;13.00;90.80;99462.63;1693033;74;24522;-79
2020/12/12 09:06:16;;;;;;;59.83;25.25;;;7.30;99.90;;;12.98;89.99;99461.77;1692965;75;24512;-81
2020/12/12 09:08:34;;;;;;;60.29;26.35;;;7.30;99.90;;;12.72;90.16;99471.03;1700103;74;24468;-82
2020/12/12 09:10:52;;;;;;;69.16;27.50;;;7.30;99.90;;;12.93;90.18;99474.06;1662344;76;24506;-82
2020/12/12 09:13:12;;;;;;;59.99;26.29;;;7.30;99.90;;;12.98;90.21;99478.75;1690820;75;24374;-79
2020/12/12 09:15:28;;;;;;;49.89;25.00;;;7.40;99.90;;;13.08;90.75;99482.93;1698328;74;24924;-80
2020/12/12 09:17:46;;;;;;;61.20;25.44;;;7.40;99.90;;;12.93;89.95;99487.59;1690859;74;24498;-79
2020/12/12 09:20:03;;;;;;;53.20;25.02;;;7.40;99.90;;;13.04;89.83;99489.56;1683889;75;24541;-80
2020/12/12 09:22:20;;;;;;;48.95;23.81;;;7.40;99.90;;;13.09;90.09;99496.84;1690648;75;24441;-81
2020/12/12 09:24:37;;;;;;;50.84;24.69;;;7.40;99.90;;;13.06;90.21;99501.70;1689691;74;24467;-80
2020/12/12 09:26:56;;;;;;;51.59;24.98;;;7.40;99.90;;;12.98;89.12;99503.57;1690524;74;24941;-83
2020/12/12 09:29:13;;;;;;;53.17;25.74;;;7.40;99.90;;;13.03;90.01;99510.91;1689902;74;24430;-80
2020/12/12 09:31:30;;;;;;;52.02;26.10;;;7.40;99.90;;;13.09;89.24;99509.47;1690470;74;24470;-81
2020/12/12 09:33:46;;;;;;;48.82;25.05;;;7.40;99.90;;;13.14;89.85;99516.77;1696585;74;24453;-80
2020/12/12 09:36:05;;;;;;;55.34;25.73;;;7.50;99.90;;;13.16;89.62;99523.27;1692504;74;24529;-81
2020/12/12 09:38:22;;;;;;;54.10;25.38;;;7.50;99.90;;;13.18;89.99;99521.03;1691002;74;24577;-80
2020/12/12 09:40:38;;;;;;;53.90;25.17;;;7.40;99.90;;;13.23;89.74;99523.10;1691116;74;25223;-82
2020/12/12 09:42:56;;;;;;;59.98;25.90;;;7.50;99.90;;;13.35;89.19;99525.91;1698059;74;24918;-81
2020/12/12 09:45:12;;;;;;;52.41;27.01;;;7.50;99.90;;;13.29;89.91;99526.89;1692977;74;24466;-82